sensor_id;sensor_type;location;lat;lon;timestamp;P1;durP1;ratioP1;P2;durP2;ratioP2
30998;SDS011;20549;50.042;8.968;2023-05-07T00:00:25;2.58;;;1.87;;
30998;SDS011;20549;50.042;8.968;2023-05-07T00:02:52;2.30;;;2.10;;
30998;SDS011;20549;50.042;8.968;2023-05-07T00:05:18;2.00;;;1.90;;
30998;SDS011;20549;50.042;8.968;2023-05-07T00:07:45;1.95;;;1.85;;
30998;SDS011;20549;50.042;8.968;2023-05-07T00:10:11;1.70;;;1.60;;
30998;SDS011;20549;50.042;8.968;2023-05-07T00:12:38;2.30;;;2.12;;
30998;SDS011;20549;50.042;8.968;2023-05-07T00:15:05;2.98;;;2.00;;
30998;SDS011;20549;50.042;8.968;2023-05-07T00:17:32;4.67;;;3.52;;
30998;SDS011;20549;50.042;8.968;2023-05-07T00:19:58;6.95;;;3.77;;
30998;SDS011;20549;50.042;8.968;2023-05-07T00:22:24;4.55;;;3.90;;
30998;SDS011;20549;50.042;8.968;2023-05-07T00:24:51;4.90;;;4.12;;
30998;SDS011;20549;50.042;8.968;2023-05-07T00:27:18;5.25;;;3.62;;
30998;SDS011;20549;50.042;8.968;2023-05-07T00:29:44;3.20;;;2.72;;
30998;SDS011;20549;50.042;8.968;2023-05-07T00:32:11;2.92;;;2.22;;
30998;SDS011;20549;50.042;8.968;2023-05-07T00:34:37;2.42;;;2.22;;
30998;SDS011;20549;50.042;8.968;2023-05-07T00:37:04;3.50;;;2.27;;
30998;SDS011;20549;50.042;8.968;2023-05-07T00:39:31;2.67;;;2.45;;
30998;SDS011;20549;50.042;8.968;2023-05-07T00:41:57;3.25;;;2.87;;
30998;SDS011;20549;50.042;8.968;2023-05-07T00:44:24;2.70;;;2.30;;
30998;SDS011;20549;50.042;8.968;2023-05-07T00:46:50;2.55;;;2.35;;
30998;SDS011;20549;50.042;8.968;2023-05-07T00:49:17;2.77;;;2.45;;
30998;SDS011;20549;50.042;8.968;2023-05-07T00:51:44;3.55;;;2.55;;
30998;SDS011;20549;50.042;8.968;2023-05-07T00:54:10;2.40;;;2.20;;
30998;SDS011;20549;50.042;8.968;2023-05-07T00:56:37;2.20;;;2.00;;
30998;SDS011;20549;50.042;8.968;2023-05-07T00:59:03;3.98;;;2.35;;
30998;SDS011;20549;50.042;8.968;2023-05-07T01:01:30;2.25;;;2.05;;
30998;SDS011;20549;50.042;8.968;2023-05-07T01:03:57;3.10;;;2.12;;
30998;SDS011;20549;50.042;8.968;2023-05-07T01:06:23;2.47;;;2.20;;
30998;SDS011;20549;50.042;8.968;2023-05-07T01:08:50;2.42;;;2.25;;
30998;SDS011;20549;50.042;8.968;2023-05-07T01:11:16;2.15;;;2.02;;
30998;SDS011;20549;50.042;8.968;2023-05-07T01:13:43;2.62;;;2.42;;
30998;SDS011;20549;50.042;8.968;2023-05-07T01:16:09;3.22;;;2.47;;
30998;SDS011;20549;50.042;8.968;2023-05-07T01:18:36;2.30;;;2.10;;
30998;SDS011;20549;50.042;8.968;2023-05-07T01:21:04;2.55;;;2.30;;
30998;SDS011;20549;50.042;8.968;2023-05-07T01:23:29;3.30;;;2.40;;
30998;SDS011;20549;50.042;8.968;2023-05-07T01:25:56;2.37;;;2.12;;
30998;SDS011;20549;50.042;8.968;2023-05-07T01:28:22;2.65;;;2.45;;
30998;SDS011;20549;50.042;8.968;2023-05-07T01:30:52;2.30;;;2.10;;
30998;SDS011;20549;50.042;8.968;2023-05-07T01:33:16;3.30;;;2.52;;
30998;SDS011;20549;50.042;8.968;2023-05-07T01:35:43;2.33;;;2.12;;
30998;SDS011;20549;50.042;8.968;2023-05-07T01:38:09;2.37;;;2.08;;
30998;SDS011;20549;50.042;8.968;2023-05-07T01:40:35;1.87;;;1.77;;
30998;SDS011;20549;50.042;8.968;2023-05-07T01:43:02;2.08;;;1.98;;
30998;SDS011;20549;50.042;8.968;2023-05-07T01:45:30;2.83;;;2.40;;
30998;SDS011;20549;50.042;8.968;2023-05-07T01:47:55;2.62;;;2.00;;
30998;SDS011;20549;50.042;8.968;2023-05-07T01:50:22;2.60;;;2.40;;
30998;SDS011;20549;50.042;8.968;2023-05-07T01:52:49;2.42;;;2.22;;
30998;SDS011;20549;50.042;8.968;2023-05-07T01:55:15;2.30;;;2.10;;
30998;SDS011;20549;50.042;8.968;2023-05-07T01:57:41;2.37;;;2.20;;
30998;SDS011;20549;50.042;8.968;2023-05-07T02:00:08;2.50;;;2.30;;
30998;SDS011;20549;50.042;8.968;2023-05-07T02:02:35;3.62;;;2.20;;
30998;SDS011;20549;50.042;8.968;2023-05-07T02:05:01;2.95;;;2.08;;
30998;SDS011;20549;50.042;8.968;2023-05-07T02:07:28;2.92;;;2.10;;
30998;SDS011;20549;50.042;8.968;2023-05-07T02:09:54;2.15;;;1.95;;
30998;SDS011;20549;50.042;8.968;2023-05-07T02:12:21;2.35;;;2.12;;
30998;SDS011;20549;50.042;8.968;2023-05-07T02:14:48;3.42;;;1.60;;
30998;SDS011;20549;50.042;8.968;2023-05-07T02:17:14;2.22;;;2.02;;
30998;SDS011;20549;50.042;8.968;2023-05-07T02:19:41;2.15;;;1.92;;
30998;SDS011;20549;50.042;8.968;2023-05-07T02:22:09;2.27;;;2.08;;
30998;SDS011;20549;50.042;8.968;2023-05-07T02:24:34;2.45;;;2.22;;
30998;SDS011;20549;50.042;8.968;2023-05-07T02:27:01;2.10;;;1.92;;
30998;SDS011;20549;50.042;8.968;2023-05-07T02:29:27;3.17;;;2.87;;
30998;SDS011;20549;50.042;8.968;2023-05-07T02:31:54;2.27;;;2.08;;
30998;SDS011;20549;50.042;8.968;2023-05-07T02:34:20;1.90;;;1.80;;
30998;SDS011;20549;50.042;8.968;2023-05-07T02:36:47;3.05;;;2.02;;
30998;SDS011;20549;50.042;8.968;2023-05-07T02:39:14;2.20;;;2.00;;
30998;SDS011;20549;50.042;8.968;2023-05-07T02:41:40;2.25;;;2.02;;
30998;SDS011;20549;50.042;8.968;2023-05-07T02:44:07;2.27;;;2.08;;
30998;SDS011;20549;50.042;8.968;2023-05-07T02:46:33;1.82;;;1.72;;
30998;SDS011;20549;50.042;8.968;2023-05-07T02:49:00;1.87;;;1.77;;
30998;SDS011;20549;50.042;8.968;2023-05-07T02:51:26;1.95;;;1.82;;
30998;SDS011;20549;50.042;8.968;2023-05-07T02:53:53;2.70;;;2.00;;
30998;SDS011;20549;50.042;8.968;2023-05-07T02:56:20;1.95;;;1.85;;
30998;SDS011;20549;50.042;8.968;2023-05-07T02:58:46;2.45;;;2.25;;
30998;SDS011;20549;50.042;8.968;2023-05-07T03:01:13;2.58;;;2.17;;
30998;SDS011;20549;50.042;8.968;2023-05-07T03:03:39;3.55;;;2.10;;
30998;SDS011;20549;50.042;8.968;2023-05-07T03:06:06;3.02;;;1.95;;
30998;SDS011;20549;50.042;8.968;2023-05-07T03:08:33;1.87;;;1.77;;
30998;SDS011;20549;50.042;8.968;2023-05-07T03:10:59;2.50;;;2.02;;
30998;SDS011;20549;50.042;8.968;2023-05-07T03:13:26;2.50;;;2.30;;
30998;SDS011;20549;50.042;8.968;2023-05-07T03:15:52;3.35;;;1.92;;
30998;SDS011;20549;50.042;8.968;2023-05-07T03:18:19;2.02;;;1.92;;
30998;SDS011;20549;50.042;8.968;2023-05-07T03:20:45;1.92;;;1.75;;
30998;SDS011;20549;50.042;8.968;2023-05-07T03:23:12;2.30;;;2.10;;
30998;SDS011;20549;50.042;8.968;2023-05-07T03:25:39;2.17;;;2.05;;
30998;SDS011;20549;50.042;8.968;2023-05-07T03:28:05;2.27;;;2.12;;
30998;SDS011;20549;50.042;8.968;2023-05-07T03:30:32;2.22;;;2.02;;
30998;SDS011;20549;50.042;8.968;2023-05-07T03:32:58;2.25;;;2.08;;
30998;SDS011;20549;50.042;8.968;2023-05-07T03:35:25;2.85;;;2.05;;
30998;SDS011;20549;50.042;8.968;2023-05-07T03:37:52;1.95;;;1.75;;
30998;SDS011;20549;50.042;8.968;2023-05-07T03:40:18;3.15;;;1.95;;
30998;SDS011;20549;50.042;8.968;2023-05-07T03:42:45;2.10;;;1.90;;
30998;SDS011;20549;50.042;8.968;2023-05-07T03:45:11;2.40;;;2.20;;
30998;SDS011;20549;50.042;8.968;2023-05-07T03:47:38;2.27;;;2.05;;
30998;SDS011;20549;50.042;8.968;2023-05-07T03:50:05;3.08;;;2.22;;
30998;SDS011;20549;50.042;8.968;2023-05-07T03:52:31;3.42;;;2.47;;
30998;SDS011;20549;50.042;8.968;2023-05-07T03:54:58;2.20;;;2.00;;
30998;SDS011;20549;50.042;8.968;2023-05-07T03:57:24;4.20;;;2.20;;
30998;SDS011;20549;50.042;8.968;2023-05-07T03:59:51;2.10;;;1.87;;
30998;SDS011;20549;50.042;8.968;2023-05-07T04:02:18;1.82;;;1.72;;
30998;SDS011;20549;50.042;8.968;2023-05-07T04:04:44;2.83;;;1.90;;
30998;SDS011;20549;50.042;8.968;2023-05-07T04:07:11;1.82;;;1.72;;
30998;SDS011;20549;50.042;8.968;2023-05-07T04:09:37;2.20;;;2.02;;
30998;SDS011;20549;50.042;8.968;2023-05-07T04:12:04;1.92;;;1.72;;
30998;SDS011;20549;50.042;8.968;2023-05-07T04:14:30;2.12;;;2.02;;
30998;SDS011;20549;50.042;8.968;2023-05-07T04:16:58;1.92;;;1.82;;
30998;SDS011;20549;50.042;8.968;2023-05-07T04:19:24;2.33;;;1.95;;
30998;SDS011;20549;50.042;8.968;2023-05-07T04:21:50;2.02;;;1.92;;
30998;SDS011;20549;50.042;8.968;2023-05-07T04:24:17;2.20;;;2.00;;
30998;SDS011;20549;50.042;8.968;2023-05-07T04:26:43;2.10;;;1.98;;
30998;SDS011;20549;50.042;8.968;2023-05-07T04:29:10;2.10;;;1.95;;
30998;SDS011;20549;50.042;8.968;2023-05-07T04:31:37;2.08;;;1.80;;
30998;SDS011;20549;50.042;8.968;2023-05-07T04:34:03;3.08;;;1.57;;
30998;SDS011;20549;50.042;8.968;2023-05-07T04:36:30;2.30;;;2.10;;
30998;SDS011;20549;50.042;8.968;2023-05-07T04:38:56;1.67;;;1.57;;
30998;SDS011;20549;50.042;8.968;2023-05-07T04:41:23;2.27;;;2.00;;
30998;SDS011;20549;50.042;8.968;2023-05-07T04:43:50;1.98;;;1.85;;
30998;SDS011;20549;50.042;8.968;2023-05-07T04:46:16;2.50;;;1.60;;
30998;SDS011;20549;50.042;8.968;2023-05-07T04:48:43;2.00;;;1.90;;
30998;SDS011;20549;50.042;8.968;2023-05-07T04:51:09;1.90;;;1.80;;
30998;SDS011;20549;50.042;8.968;2023-05-07T04:53:36;1.85;;;1.75;;
30998;SDS011;20549;50.042;8.968;2023-05-07T04:56:02;2.08;;;1.87;;
30998;SDS011;20549;50.042;8.968;2023-05-07T04:58:29;1.82;;;1.72;;
30998;SDS011;20549;50.042;8.968;2023-05-07T05:00:56;1.72;;;1.62;;
30998;SDS011;20549;50.042;8.968;2023-05-07T05:03:22;2.02;;;1.85;;
30998;SDS011;20549;50.042;8.968;2023-05-07T05:05:49;1.90;;;1.80;;
30998;SDS011;20549;50.042;8.968;2023-05-07T05:08:15;2.10;;;2.00;;
30998;SDS011;20549;50.042;8.968;2023-05-07T05:10:42;2.05;;;1.90;;
30998;SDS011;20549;50.042;8.968;2023-05-07T05:13:09;1.70;;;1.60;;
30998;SDS011;20549;50.042;8.968;2023-05-07T05:15:35;1.90;;;1.80;;
30998;SDS011;20549;50.042;8.968;2023-05-07T05:18:02;1.70;;;1.60;;
30998;SDS011;20549;50.042;8.968;2023-05-07T05:20:28;1.87;;;1.77;;
30998;SDS011;20549;50.042;8.968;2023-05-07T05:22:55;1.75;;;1.65;;
30998;SDS011;20549;50.042;8.968;2023-05-07T05:25:22;2.00;;;1.85;;
30998;SDS011;20549;50.042;8.968;2023-05-07T05:27:48;2.95;;;2.08;;
30998;SDS011;20549;50.042;8.968;2023-05-07T05:30:15;2.10;;;2.00;;
30998;SDS011;20549;50.042;8.968;2023-05-07T05:32:41;2.00;;;1.90;;
30998;SDS011;20549;50.042;8.968;2023-05-07T05:35:08;2.20;;;2.00;;
30998;SDS011;20549;50.042;8.968;2023-05-07T05:37:34;1.98;;;1.87;;
30998;SDS011;20549;50.042;8.968;2023-05-07T05:40:01;2.12;;;2.02;;
30998;SDS011;20549;50.042;8.968;2023-05-07T05:42:28;2.00;;;1.90;;
30998;SDS011;20549;50.042;8.968;2023-05-07T05:44:54;1.98;;;1.87;;
30998;SDS011;20549;50.042;8.968;2023-05-07T05:47:21;2.00;;;1.90;;
30998;SDS011;20549;50.042;8.968;2023-05-07T05:49:47;2.20;;;2.08;;
30998;SDS011;20549;50.042;8.968;2023-05-07T05:52:14;1.82;;;1.72;;
30998;SDS011;20549;50.042;8.968;2023-05-07T05:54:41;2.10;;;2.00;;
30998;SDS011;20549;50.042;8.968;2023-05-07T05:57:07;1.92;;;1.82;;
30998;SDS011;20549;50.042;8.968;2023-05-07T05:59:34;1.98;;;1.87;;
30998;SDS011;20549;50.042;8.968;2023-05-07T06:02:00;2.12;;;1.98;;
30998;SDS011;20549;50.042;8.968;2023-05-07T06:04:27;2.30;;;2.20;;
30998;SDS011;20549;50.042;8.968;2023-05-07T06:06:54;2.27;;;2.08;;
30998;SDS011;20549;50.042;8.968;2023-05-07T06:09:20;2.00;;;1.90;;
30998;SDS011;20549;50.042;8.968;2023-05-07T06:11:47;2.40;;;2.30;;
30998;SDS011;20549;50.042;8.968;2023-05-07T06:14:13;2.50;;;2.30;;
30998;SDS011;20549;50.042;8.968;2023-05-07T06:16:40;2.37;;;2.17;;
30998;SDS011;20549;50.042;8.968;2023-05-07T06:19:07;2.37;;;2.27;;
30998;SDS011;20549;50.042;8.968;2023-05-07T06:21:33;2.30;;;2.10;;
30998;SDS011;20549;50.042;8.968;2023-05-07T06:24:00;2.30;;;2.20;;
30998;SDS011;20549;50.042;8.968;2023-05-07T06:26:26;2.00;;;1.90;;
30998;SDS011;20549;50.042;8.968;2023-05-07T06:28:53;2.30;;;2.10;;
30998;SDS011;20549;50.042;8.968;2023-05-07T06:31:20;2.33;;;2.12;;
30998;SDS011;20549;50.042;8.968;2023-05-07T06:33:46;2.02;;;1.90;;
30998;SDS011;20549;50.042;8.968;2023-05-07T06:36:13;3.00;;;2.25;;
30998;SDS011;20549;50.042;8.968;2023-05-07T06:38:39;2.10;;;2.00;;
30998;SDS011;20549;50.042;8.968;2023-05-07T06:41:06;1.90;;;1.80;;
30998;SDS011;20549;50.042;8.968;2023-05-07T06:43:33;2.00;;;1.80;;
30998;SDS011;20549;50.042;8.968;2023-05-07T06:45:59;2.52;;;2.00;;
30998;SDS011;20549;50.042;8.968;2023-05-07T06:48:26;2.02;;;1.92;;
30998;SDS011;20549;50.042;8.968;2023-05-07T06:50:52;2.30;;;2.10;;
30998;SDS011;20549;50.042;8.968;2023-05-07T06:53:19;2.27;;;1.98;;
30998;SDS011;20549;50.042;8.968;2023-05-07T06:55:45;2.60;;;2.40;;
30998;SDS011;20549;50.042;8.968;2023-05-07T06:58:12;2.20;;;2.10;;
30998;SDS011;20549;50.042;8.968;2023-05-07T07:00:38;1.95;;;1.85;;
30998;SDS011;20549;50.042;8.968;2023-05-07T07:03:05;2.30;;;2.20;;
30998;SDS011;20549;50.042;8.968;2023-05-07T07:05:32;2.58;;;1.80;;
30998;SDS011;20549;50.042;8.968;2023-05-07T07:07:58;2.47;;;2.27;;
30998;SDS011;20549;50.042;8.968;2023-05-07T07:10:25;1.90;;;1.80;;
30998;SDS011;20549;50.042;8.968;2023-05-07T07:12:51;2.02;;;1.92;;
30998;SDS011;20549;50.042;8.968;2023-05-07T07:15:18;2.22;;;1.77;;
30998;SDS011;20549;50.042;8.968;2023-05-07T07:17:45;2.30;;;2.10;;
30998;SDS011;20549;50.042;8.968;2023-05-07T07:20:11;1.90;;;1.80;;
30998;SDS011;20549;50.042;8.968;2023-05-07T07:22:38;2.00;;;1.90;;
30998;SDS011;20549;50.042;8.968;2023-05-07T07:25:04;1.98;;;1.87;;
30998;SDS011;20549;50.042;8.968;2023-05-07T07:27:31;1.80;;;1.70;;
30998;SDS011;20549;50.042;8.968;2023-05-07T07:29:58;2.20;;;2.00;;
30998;SDS011;20549;50.042;8.968;2023-05-07T07:32:24;4.58;;;2.30;;
30998;SDS011;20549;50.042;8.968;2023-05-07T07:34:51;1.95;;;1.85;;
30998;SDS011;20549;50.042;8.968;2023-05-07T07:37:17;2.27;;;2.08;;
30998;SDS011;20549;50.042;8.968;2023-05-07T07:39:44;2.12;;;2.00;;
30998;SDS011;20549;50.042;8.968;2023-05-07T07:42:11;1.67;;;1.67;;
30998;SDS011;20549;50.042;8.968;2023-05-07T07:44:37;2.33;;;2.17;;
30998;SDS011;20549;50.042;8.968;2023-05-07T07:47:04;2.20;;;2.08;;
30998;SDS011;20549;50.042;8.968;2023-05-07T07:49:30;2.20;;;2.00;;
30998;SDS011;20549;50.042;8.968;2023-05-07T07:51:57;2.30;;;2.20;;
30998;SDS011;20549;50.042;8.968;2023-05-07T07:54:23;2.27;;;2.08;;
30998;SDS011;20549;50.042;8.968;2023-05-07T07:56:50;2.10;;;2.00;;
30998;SDS011;20549;50.042;8.968;2023-05-07T07:59:17;3.37;;;2.22;;
30998;SDS011;20549;50.042;8.968;2023-05-07T08:01:43;2.27;;;2.15;;
30998;SDS011;20549;50.042;8.968;2023-05-07T08:04:10;2.20;;;2.00;;
30998;SDS011;20549;50.042;8.968;2023-05-07T08:06:36;2.00;;;1.90;;
30998;SDS011;20549;50.042;8.968;2023-05-07T08:09:03;2.05;;;1.95;;
30998;SDS011;20549;50.042;8.968;2023-05-07T08:11:30;2.12;;;1.92;;
30998;SDS011;20549;50.042;8.968;2023-05-07T08:13:56;2.10;;;2.00;;
30998;SDS011;20549;50.042;8.968;2023-05-07T08:16:23;2.17;;;2.08;;
30998;SDS011;20549;50.042;8.968;2023-05-07T08:18:49;2.42;;;1.98;;
30998;SDS011;20549;50.042;8.968;2023-05-07T08:21:16;2.42;;;2.22;;
30998;SDS011;20549;50.042;8.968;2023-05-07T08:23:43;2.10;;;2.00;;
30998;SDS011;20549;50.042;8.968;2023-05-07T08:26:09;2.17;;;1.98;;
30998;SDS011;20549;50.042;8.968;2023-05-07T08:28:36;2.30;;;2.20;;
30998;SDS011;20549;50.042;8.968;2023-05-07T08:31:02;2.42;;;2.22;;
30998;SDS011;20549;50.042;8.968;2023-05-07T08:33:29;2.30;;;2.10;;
30998;SDS011;20549;50.042;8.968;2023-05-07T08:35:55;2.10;;;2.00;;
30998;SDS011;20549;50.042;8.968;2023-05-07T08:38:22;2.35;;;2.25;;
30998;SDS011;20549;50.042;8.968;2023-05-07T08:40:49;2.25;;;2.08;;
30998;SDS011;20549;50.042;8.968;2023-05-07T08:43:15;2.10;;;2.00;;
30998;SDS011;20549;50.042;8.968;2023-05-07T08:45:42;2.27;;;2.17;;
30998;SDS011;20549;50.042;8.968;2023-05-07T08:48:09;2.27;;;2.08;;
30998;SDS011;20549;50.042;8.968;2023-05-07T08:50:35;1.72;;;1.62;;
30998;SDS011;20549;50.042;8.968;2023-05-07T08:53:04;2.60;;;2.30;;
30998;SDS011;20549;50.042;8.968;2023-05-07T08:55:31;1.82;;;1.72;;
30998;SDS011;20549;50.042;8.968;2023-05-07T08:57:57;2.12;;;1.92;;
30998;SDS011;20549;50.042;8.968;2023-05-07T09:00:24;2.08;;;1.98;;
30998;SDS011;20549;50.042;8.968;2023-05-07T09:02:51;2.00;;;1.90;;
30998;SDS011;20549;50.042;8.968;2023-05-07T09:05:17;2.20;;;2.00;;
30998;SDS011;20549;50.042;8.968;2023-05-07T09:07:44;2.00;;;1.90;;
30998;SDS011;20549;50.042;8.968;2023-05-07T09:10:10;2.10;;;2.00;;
30998;SDS011;20549;50.042;8.968;2023-05-07T09:12:37;2.25;;;2.00;;
30998;SDS011;20549;50.042;8.968;2023-05-07T09:15:04;3.05;;;2.10;;
30998;SDS011;20549;50.042;8.968;2023-05-07T09:17:30;2.22;;;2.12;;
30998;SDS011;20549;50.042;8.968;2023-05-07T09:20:01;2.47;;;2.10;;
30998;SDS011;20549;50.042;8.968;2023-05-07T09:22:23;2.67;;;1.85;;
30998;SDS011;20549;50.042;8.968;2023-05-07T09:24:50;2.00;;;1.90;;
30998;SDS011;20549;50.042;8.968;2023-05-07T09:27:17;1.72;;;1.62;;
30998;SDS011;20549;50.042;8.968;2023-05-07T09:29:43;2.00;;;1.90;;
30998;SDS011;20549;50.042;8.968;2023-05-07T09:32:10;2.50;;;1.80;;
30998;SDS011;20549;50.042;8.968;2023-05-07T09:34:36;1.62;;;1.52;;
30998;SDS011;20549;50.042;8.968;2023-05-07T09:37:04;1.95;;;1.85;;
30998;SDS011;20549;50.042;8.968;2023-05-07T09:39:42;1.77;;;1.67;;
30998;SDS011;20549;50.042;8.968;2023-05-07T09:42:08;2.02;;;1.90;;
30998;SDS011;20549;50.042;8.968;2023-05-07T09:44:35;1.90;;;1.80;;
30998;SDS011;20549;50.042;8.968;2023-05-07T09:47:01;2.10;;;2.00;;
30998;SDS011;20549;50.042;8.968;2023-05-07T09:49:28;2.08;;;1.98;;
30998;SDS011;20549;50.042;8.968;2023-05-07T09:51:55;1.98;;;1.87;;
30998;SDS011;20549;50.042;8.968;2023-05-07T09:54:21;1.90;;;1.80;;
30998;SDS011;20549;50.042;8.968;2023-05-07T09:56:48;2.27;;;2.08;;
30998;SDS011;20549;50.042;8.968;2023-05-07T09:59:15;3.33;;;1.80;;
30998;SDS011;20549;50.042;8.968;2023-05-07T10:01:41;2.20;;;2.00;;
30998;SDS011;20549;50.042;8.968;2023-05-07T10:04:08;3.05;;;2.25;;
30998;SDS011;20549;50.042;8.968;2023-05-07T10:06:34;2.05;;;1.95;;
30998;SDS011;20549;50.042;8.968;2023-05-07T10:09:01;2.25;;;2.05;;
30998;SDS011;20549;50.042;8.968;2023-05-07T10:11:27;1.92;;;1.82;;
30998;SDS011;20549;50.042;8.968;2023-05-07T10:13:54;2.10;;;2.00;;
30998;SDS011;20549;50.042;8.968;2023-05-07T10:16:21;2.35;;;2.00;;
30998;SDS011;20549;50.042;8.968;2023-05-07T10:18:47;2.08;;;1.98;;
30998;SDS011;20549;50.042;8.968;2023-05-07T10:21:16;2.05;;;1.95;;
30998;SDS011;20549;50.042;8.968;2023-05-07T10:23:48;2.00;;;1.90;;
30998;SDS011;20549;50.042;8.968;2023-05-07T10:26:15;2.05;;;1.85;;
30998;SDS011;20549;50.042;8.968;2023-05-07T10:28:43;2.02;;;1.90;;
30998;SDS011;20549;50.042;8.968;2023-05-07T10:31:15;2.75;;;2.00;;
30998;SDS011;20549;50.042;8.968;2023-05-07T10:33:38;1.87;;;1.77;;
30998;SDS011;20549;50.042;8.968;2023-05-07T10:36:04;1.87;;;1.77;;
30998;SDS011;20549;50.042;8.968;2023-05-07T10:38:31;1.90;;;1.80;;
30998;SDS011;20549;50.042;8.968;2023-05-07T10:40:58;2.15;;;2.05;;
30998;SDS011;20549;50.042;8.968;2023-05-07T10:43:24;2.30;;;1.90;;
30998;SDS011;20549;50.042;8.968;2023-05-07T10:51:26;1.82;;;1.72;;
30998;SDS011;20549;50.042;8.968;2023-05-07T10:56:38;2.17;;;2.08;;
30998;SDS011;20549;50.042;8.968;2023-05-07T11:01:50;2.77;;;2.27;;
30998;SDS011;20549;50.042;8.968;2023-05-07T11:04:16;2.02;;;1.92;;
30998;SDS011;20549;50.042;8.968;2023-05-07T11:06:52;2.15;;;2.05;;
30998;SDS011;20549;50.042;8.968;2023-05-07T11:09:09;1.98;;;1.87;;
30998;SDS011;20549;50.042;8.968;2023-05-07T11:11:45;2.10;;;2.00;;
30998;SDS011;20549;50.042;8.968;2023-05-07T11:14:11;2.15;;;1.95;;
30998;SDS011;20549;50.042;8.968;2023-05-07T11:16:37;1.80;;;1.70;;
30998;SDS011;20549;50.042;8.968;2023-05-07T11:19:04;1.82;;;1.72;;
30998;SDS011;20549;50.042;8.968;2023-05-07T11:21:34;2.05;;;1.82;;
30998;SDS011;20549;50.042;8.968;2023-05-07T11:24:07;1.82;;;1.72;;
30998;SDS011;20549;50.042;8.968;2023-05-07T11:26:46;1.80;;;1.70;;
30998;SDS011;20549;50.042;8.968;2023-05-07T11:29:15;1.50;;;1.42;;
30998;SDS011;20549;50.042;8.968;2023-05-07T11:31:41;1.70;;;1.60;;
30998;SDS011;20549;50.042;8.968;2023-05-07T11:34:07;1.92;;;1.82;;
30998;SDS011;20549;50.042;8.968;2023-05-07T11:36:34;2.52;;;1.90;;
30998;SDS011;20549;50.042;8.968;2023-05-07T11:39:01;2.20;;;2.00;;
30998;SDS011;20549;50.042;8.968;2023-05-07T11:41:34;1.80;;;1.70;;
30998;SDS011;20549;50.042;8.968;2023-05-07T11:44:00;1.80;;;1.70;;
30998;SDS011;20549;50.042;8.968;2023-05-07T11:46:27;2.00;;;1.50;;
30998;SDS011;20549;50.042;8.968;2023-05-07T11:48:53;1.72;;;1.62;;
30998;SDS011;20549;50.042;8.968;2023-05-07T11:51:20;1.25;;;1.25;;
30998;SDS011;20549;50.042;8.968;2023-05-07T11:53:46;1.75;;;1.65;;
30998;SDS011;20549;50.042;8.968;2023-05-07T11:56:14;1.27;;;1.27;;
30998;SDS011;20549;50.042;8.968;2023-05-07T11:58:40;1.60;;;1.30;;
30998;SDS011;20549;50.042;8.968;2023-05-07T12:01:09;1.37;;;1.27;;
30998;SDS011;20549;50.042;8.968;2023-05-07T12:03:36;1.40;;;1.30;;
30998;SDS011;20549;50.042;8.968;2023-05-07T12:06:02;1.35;;;1.30;;
30998;SDS011;20549;50.042;8.968;2023-05-07T12:08:28;1.20;;;1.10;;
30998;SDS011;20549;50.042;8.968;2023-05-07T12:10:55;1.70;;;1.45;;
30998;SDS011;20549;50.042;8.968;2023-05-07T12:13:22;1.55;;;1.45;;
30998;SDS011;20549;50.042;8.968;2023-05-07T12:15:51;1.77;;;1.67;;
30998;SDS011;20549;50.042;8.968;2023-05-07T12:18:18;1.75;;;1.40;;
30998;SDS011;20549;50.042;8.968;2023-05-07T12:20:44;4.30;;;1.70;;
30998;SDS011;20549;50.042;8.968;2023-05-07T12:23:11;1.30;;;1.20;;
30998;SDS011;20549;50.042;8.968;2023-05-07T12:25:38;1.52;;;1.22;;
30998;SDS011;20549;50.042;8.968;2023-05-07T12:28:04;1.70;;;1.60;;
30998;SDS011;20549;50.042;8.968;2023-05-07T12:30:37;1.30;;;1.30;;
30998;SDS011;20549;50.042;8.968;2023-05-07T12:33:03;1.10;;;1.10;;
30998;SDS011;20549;50.042;8.968;2023-05-07T12:35:36;1.87;;;1.42;;
30998;SDS011;20549;50.042;8.968;2023-05-07T12:37:57;1.27;;;1.27;;
30998;SDS011;20549;50.042;8.968;2023-05-07T12:40:23;2.05;;;1.45;;
30998;SDS011;20549;50.042;8.968;2023-05-07T12:42:52;1.45;;;1.35;;
30998;SDS011;20549;50.042;8.968;2023-05-07T12:45:17;1.55;;;1.40;;
30998;SDS011;20549;50.042;8.968;2023-05-07T12:47:44;1.57;;;1.47;;
30998;SDS011;20549;50.042;8.968;2023-05-07T12:50:10;1.35;;;1.32;;
30998;SDS011;20549;50.042;8.968;2023-05-07T12:52:37;1.50;;;1.40;;
30998;SDS011;20549;50.042;8.968;2023-05-07T12:55:07;1.47;;;1.35;;
30998;SDS011;20549;50.042;8.968;2023-05-07T12:57:43;1.55;;;1.27;;
30998;SDS011;20549;50.042;8.968;2023-05-07T13:00:09;1.77;;;1.40;;
30998;SDS011;20549;50.042;8.968;2023-05-07T13:02:38;1.62;;;1.12;;
30998;SDS011;20549;50.042;8.968;2023-05-07T13:05:04;1.40;;;1.30;;
30998;SDS011;20549;50.042;8.968;2023-05-07T13:07:31;1.10;;;1.10;;
30998;SDS011;20549;50.042;8.968;2023-05-07T13:09:58;2.10;;;1.50;;
30998;SDS011;20549;50.042;8.968;2023-05-07T13:12:24;1.30;;;1.20;;
30998;SDS011;20549;50.042;8.968;2023-05-07T13:14:51;1.57;;;1.40;;
30998;SDS011;20549;50.042;8.968;2023-05-07T13:17:17;1.02;;;1.02;;
30998;SDS011;20549;50.042;8.968;2023-05-07T13:19:44;1.62;;;1.50;;
30998;SDS011;20549;50.042;8.968;2023-05-07T13:22:11;1.25;;;1.20;;
30998;SDS011;20549;50.042;8.968;2023-05-07T13:24:37;1.30;;;1.15;;
30998;SDS011;20549;50.042;8.968;2023-05-07T13:27:04;1.35;;;1.32;;
30998;SDS011;20549;50.042;8.968;2023-05-07T13:29:30;1.25;;;1.22;;
30998;SDS011;20549;50.042;8.968;2023-05-07T13:31:57;1.05;;;1.05;;
30998;SDS011;20549;50.042;8.968;2023-05-07T13:34:24;1.30;;;1.20;;
30998;SDS011;20549;50.042;8.968;2023-05-07T13:36:50;0.90;;;0.90;;
30998;SDS011;20549;50.042;8.968;2023-05-07T13:39:17;1.10;;;1.00;;
30998;SDS011;20549;50.042;8.968;2023-05-07T13:41:43;1.72;;;1.25;;
30998;SDS011;20549;50.042;8.968;2023-05-07T13:44:10;1.20;;;1.20;;
30998;SDS011;20549;50.042;8.968;2023-05-07T13:46:36;1.85;;;1.30;;
30998;SDS011;20549;50.042;8.968;2023-05-07T13:49:03;1.30;;;1.20;;
30998;SDS011;20549;50.042;8.968;2023-05-07T13:51:30;0.88;;;0.88;;
30998;SDS011;20549;50.042;8.968;2023-05-07T13:53:56;1.40;;;1.30;;
30998;SDS011;20549;50.042;8.968;2023-05-07T13:56:23;1.10;;;1.10;;
30998;SDS011;20549;50.042;8.968;2023-05-07T13:58:49;1.12;;;1.02;;
30998;SDS011;20549;50.042;8.968;2023-05-07T14:01:16;1.62;;;1.15;;
30998;SDS011;20549;50.042;8.968;2023-05-07T14:03:43;1.17;;;1.15;;
30998;SDS011;20549;50.042;8.968;2023-05-07T14:06:09;1.57;;;1.10;;
30998;SDS011;20549;50.042;8.968;2023-05-07T14:08:36;1.60;;;1.30;;
30998;SDS011;20549;50.042;8.968;2023-05-07T14:11:02;1.67;;;1.40;;
30998;SDS011;20549;50.042;8.968;2023-05-07T14:13:29;1.47;;;1.37;;
30998;SDS011;20549;50.042;8.968;2023-05-07T14:15:56;1.12;;;1.12;;
30998;SDS011;20549;50.042;8.968;2023-05-07T14:18:22;1.42;;;1.40;;
30998;SDS011;20549;50.042;8.968;2023-05-07T14:20:49;1.52;;;1.45;;
30998;SDS011;20549;50.042;8.968;2023-05-07T14:23:15;1.55;;;1.45;;
30998;SDS011;20549;50.042;8.968;2023-05-07T14:25:42;1.60;;;1.50;;
30998;SDS011;20549;50.042;8.968;2023-05-07T14:28:08;1.70;;;1.60;;
30998;SDS011;20549;50.042;8.968;2023-05-07T14:30:35;1.55;;;1.47;;
30998;SDS011;20549;50.042;8.968;2023-05-07T14:33:02;2.92;;;1.47;;
30998;SDS011;20549;50.042;8.968;2023-05-07T14:35:28;1.20;;;1.15;;
30998;SDS011;20549;50.042;8.968;2023-05-07T14:37:55;1.30;;;1.30;;
30998;SDS011;20549;50.042;8.968;2023-05-07T14:40:21;1.25;;;1.17;;
30998;SDS011;20549;50.042;8.968;2023-05-07T14:42:48;1.55;;;1.45;;
30998;SDS011;20549;50.042;8.968;2023-05-07T14:45:15;1.35;;;1.32;;
30998;SDS011;20549;50.042;8.968;2023-05-07T14:47:41;2.30;;;1.30;;
30998;SDS011;20549;50.042;8.968;2023-05-07T14:50:08;1.20;;;1.10;;
30998;SDS011;20549;50.042;8.968;2023-05-07T14:52:34;1.98;;;1.47;;
30998;SDS011;20549;50.042;8.968;2023-05-07T14:55:01;1.12;;;0.98;;